sensor_id;sensor_type;location;lat;lon;timestamp;P1;durP1;ratioP1;P2;durP2;ratioP2
60239;SDS011;46102;39.012;-7.064;2023-03-18T00:01:03;16.33;;;2.90;;
60239;SDS011;46102;39.012;-7.064;2023-03-18T00:03:06;11.48;;;2.20;;
60239;SDS011;46102;39.012;-7.064;2023-03-18T00:05:08;11.98;;;2.50;;
60239;SDS011;46102;39.012;-7.064;2023-03-18T00:07:10;10.00;;;2.65;;
60239;SDS011;46102;39.012;-7.064;2023-03-18T00:09:11;7.35;;;1.55;;
60239;SDS011;46102;39.012;-7.064;2023-03-18T00:11:14;10.63;;;2.80;;
60239;SDS011;46102;39.012;-7.064;2023-03-18T00:13:17;10.60;;;2.67;;
60239;SDS011;46102;39.012;-7.064;2023-03-18T00:15:18;11.68;;;2.35;;
60239;SDS011;46102;39.012;-7.064;2023-03-18T00:17:19;14.10;;;2.30;;
60239;SDS011;46102;39.012;-7.064;2023-03-18T00:19:20;19.92;;;2.72;;
60239;SDS011;46102;39.012;-7.064;2023-03-18T00:21:23;5.47;;;1.95;;
60239;SDS011;46102;39.012;-7.064;2023-03-18T00:23:23;10.50;;;2.78;;
60239;SDS011;46102;39.012;-7.064;2023-03-18T00:25:25;6.63;;;2.03;;
60239;SDS011;46102;39.012;-7.064;2023-03-18T00:27:27;5.70;;;1.73;;
60239;SDS011;46102;39.012;-7.064;2023-03-18T00:29:28;12.35;;;1.98;;
60239;SDS011;46102;39.012;-7.064;2023-03-18T00:31:29;12.20;;;2.05;;
60239;SDS011;46102;39.012;-7.064;2023-03-18T00:33:31;13.98;;;2.58;;
60239;SDS011;46102;39.012;-7.064;2023-03-18T00:35:32;12.75;;;2.05;;
60239;SDS011;46102;39.012;-7.064;2023-03-18T00:37:33;9.68;;;1.88;;
60239;SDS011;46102;39.012;-7.064;2023-03-18T00:39:35;8.75;;;2.30;;
60239;SDS011;46102;39.012;-7.064;2023-03-18T00:41:36;11.52;;;2.30;;
60239;SDS011;46102;39.012;-7.064;2023-03-18T00:43:39;19.25;;;2.53;;
60239;SDS011;46102;39.012;-7.064;2023-03-18T00:45:46;12.25;;;2.00;;
60239;SDS011;46102;39.012;-7.064;2023-03-18T00:47:47;10.45;;;2.42;;
60239;SDS011;46102;39.012;-7.064;2023-03-18T00:49:49;8.60;;;2.30;;
60239;SDS011;46102;39.012;-7.064;2023-03-18T00:51:50;10.40;;;2.63;;
60239;SDS011;46102;39.012;-7.064;2023-03-18T00:53:53;6.50;;;1.58;;
60239;SDS011;46102;39.012;-7.064;2023-03-18T00:55:55;8.07;;;2.63;;
60239;SDS011;46102;39.012;-7.064;2023-03-18T00:57:56;10.18;;;1.75;;
60239;SDS011;46102;39.012;-7.064;2023-03-18T00:59:57;8.32;;;1.50;;
60239;SDS011;46102;39.012;-7.064;2023-03-18T01:02:00;7.68;;;1.83;;
60239;SDS011;46102;39.012;-7.064;2023-03-18T01:04:03;11.13;;;1.58;;
60239;SDS011;46102;39.012;-7.064;2023-03-18T01:06:05;5.75;;;1.35;;
60239;SDS011;46102;39.012;-7.064;2023-03-18T01:08:06;9.80;;;1.95;;
60239;SDS011;46102;39.012;-7.064;2023-03-18T01:10:07;6.03;;;1.75;;
60239;SDS011;46102;39.012;-7.064;2023-03-18T01:12:09;14.50;;;2.30;;
60239;SDS011;46102;39.012;-7.064;2023-03-18T01:14:10;14.57;;;2.17;;
60239;SDS011;46102;39.012;-7.064;2023-03-18T01:16:12;13.95;;;2.22;;
60239;SDS011;46102;39.012;-7.064;2023-03-18T01:18:13;7.82;;;1.45;;
60239;SDS011;46102;39.012;-7.064;2023-03-18T01:20:15;7.82;;;1.55;;
60239;SDS011;46102;39.012;-7.064;2023-03-18T01:22:22;8.65;;;1.48;;
60239;SDS011;46102;39.012;-7.064;2023-03-18T01:24:23;12.77;;;2.58;;
60239;SDS011;46102;39.012;-7.064;2023-03-18T01:26:25;6.28;;;1.70;;
60239;SDS011;46102;39.012;-7.064;2023-03-18T01:28:28;7.20;;;1.90;;
60239;SDS011;46102;39.012;-7.064;2023-03-18T01:30:30;11.23;;;2.08;;
60239;SDS011;46102;39.012;-7.064;2023-03-18T01:32:31;8.80;;;2.28;;
60239;SDS011;46102;39.012;-7.064;2023-03-18T01:34:32;13.18;;;1.35;;
60239;SDS011;46102;39.012;-7.064;2023-03-18T01:36:33;9.32;;;1.70;;
60239;SDS011;46102;39.012;-7.064;2023-03-18T01:38:39;15.57;;;2.03;;
60239;SDS011;46102;39.012;-7.064;2023-03-18T01:40:45;4.70;;;1.55;;
60239;SDS011;46102;39.012;-7.064;2023-03-18T01:42:54;5.70;;;1.40;;
60239;SDS011;46102;39.012;-7.064;2023-03-18T01:47:21;8.70;;;2.08;;
60239;SDS011;46102;39.012;-7.064;2023-03-18T01:49:35;10.00;;;1.80;;
60239;SDS011;46102;39.012;-7.064;2023-03-18T01:51:39;12.27;;;1.33;;
60239;SDS011;46102;39.012;-7.064;2023-03-18T01:53:43;13.45;;;2.35;;
60239;SDS011;46102;39.012;-7.064;2023-03-18T01:55:47;8.68;;;1.60;;
60239;SDS011;46102;39.012;-7.064;2023-03-18T01:57:50;7.20;;;1.67;;
60239;SDS011;46102;39.012;-7.064;2023-03-18T01:59:52;12.77;;;1.35;;
60239;SDS011;46102;39.012;-7.064;2023-03-18T02:04:08;9.07;;;2.13;;
60239;SDS011;46102;39.012;-7.064;2023-03-18T02:06:12;14.07;;;1.92;;
60239;SDS011;46102;39.012;-7.064;2023-03-18T02:08:15;6.57;;;1.42;;
60239;SDS011;46102;39.012;-7.064;2023-03-18T02:10:19;9.13;;;1.48;;
60239;SDS011;46102;39.012;-7.064;2023-03-18T02:12:25;11.23;;;1.88;;
60239;SDS011;46102;39.012;-7.064;2023-03-18T02:14:32;3.58;;;0.93;;
60239;SDS011;46102;39.012;-7.064;2023-03-18T02:16:34;3.65;;;1.15;;
60239;SDS011;46102;39.012;-7.064;2023-03-18T02:18:46;7.80;;;1.38;;
60239;SDS011;46102;39.012;-7.064;2023-03-18T02:30:09;7.78;;;1.50;;
60239;SDS011;46102;39.012;-7.064;2023-03-18T02:32:13;10.80;;;1.50;;
60239;SDS011;46102;39.012;-7.064;2023-03-18T02:34:15;9.13;;;1.42;;
60239;SDS011;46102;39.012;-7.064;2023-03-18T02:36:21;2.55;;;1.00;;
60239;SDS011;46102;39.012;-7.064;2023-03-18T02:38:26;9.88;;;1.83;;
60239;SDS011;46102;39.012;-7.064;2023-03-18T02:40:28;9.20;;;1.92;;
60239;SDS011;46102;39.012;-7.064;2023-03-18T02:42:36;9.02;;;1.00;;
60239;SDS011;46102;39.012;-7.064;2023-03-18T02:44:40;6.45;;;1.42;;
60239;SDS011;46102;39.012;-7.064;2023-03-18T02:47:16;6.95;;;1.83;;
60239;SDS011;46102;39.012;-7.064;2023-03-18T02:49:20;5.43;;;1.50;;
60239;SDS011;46102;39.012;-7.064;2023-03-18T02:51:23;4.22;;;1.33;;
60239;SDS011;46102;39.012;-7.064;2023-03-18T02:53:25;6.80;;;1.13;;
60239;SDS011;46102;39.012;-7.064;2023-03-18T02:55:26;5.18;;;1.42;;
60239;SDS011;46102;39.012;-7.064;2023-03-18T02:57:27;8.63;;;1.42;;
60239;SDS011;46102;39.012;-7.064;2023-03-18T02:59:29;7.47;;;1.30;;
60239;SDS011;46102;39.012;-7.064;2023-03-18T03:01:33;6.75;;;1.85;;
60239;SDS011;46102;39.012;-7.064;2023-03-18T03:03:34;5.05;;;1.42;;
60239;SDS011;46102;39.012;-7.064;2023-03-18T03:05:36;3.97;;;1.45;;
60239;SDS011;46102;39.012;-7.064;2023-03-18T03:07:37;6.97;;;1.30;;
60239;SDS011;46102;39.012;-7.064;2023-03-18T03:09:40;4.50;;;1.55;;
60239;SDS011;46102;39.012;-7.064;2023-03-18T03:11:43;8.32;;;1.73;;
60239;SDS011;46102;39.012;-7.064;2023-03-18T03:13:49;8.40;;;1.20;;
60239;SDS011;46102;39.012;-7.064;2023-03-18T03:15:52;3.55;;;1.30;;
60239;SDS011;46102;39.012;-7.064;2023-03-18T03:17:53;4.00;;;1.33;;
60239;SDS011;46102;39.012;-7.064;2023-03-18T03:19:54;3.30;;;1.25;;
60239;SDS011;46102;39.012;-7.064;2023-03-18T03:21:55;6.90;;;1.52;;
60239;SDS011;46102;39.012;-7.064;2023-03-18T03:23:58;5.32;;;2.00;;
60239;SDS011;46102;39.012;-7.064;2023-03-18T03:25:59;9.35;;;1.75;;
60239;SDS011;46102;39.012;-7.064;2023-03-18T03:28:00;5.65;;;1.67;;
60239;SDS011;46102;39.012;-7.064;2023-03-18T03:30:03;7.40;;;1.83;;
60239;SDS011;46102;39.012;-7.064;2023-03-18T03:32:05;8.73;;;2.03;;
60239;SDS011;46102;39.012;-7.064;2023-03-18T03:34:06;6.82;;;2.25;;
60239;SDS011;46102;39.012;-7.064;2023-03-18T03:36:10;5.78;;;2.35;;
60239;SDS011;46102;39.012;-7.064;2023-03-18T03:38:13;9.52;;;2.17;;
60239;SDS011;46102;39.012;-7.064;2023-03-18T03:40:14;12.20;;;3.40;;
60239;SDS011;46102;39.012;-7.064;2023-03-18T03:42:17;4.60;;;2.42;;
60239;SDS011;46102;39.012;-7.064;2023-03-18T03:44:18;6.88;;;2.30;;
60239;SDS011;46102;39.012;-7.064;2023-03-18T03:46:22;12.25;;;3.70;;
60239;SDS011;46102;39.012;-7.064;2023-03-18T03:48:23;9.73;;;3.28;;
60239;SDS011;46102;39.012;-7.064;2023-03-18T03:50:25;10.93;;;3.28;;
60239;SDS011;46102;39.012;-7.064;2023-03-18T03:52:26;10.25;;;3.70;;
60239;SDS011;46102;39.012;-7.064;2023-03-18T03:54:28;12.90;;;3.20;;
60239;SDS011;46102;39.012;-7.064;2023-03-18T03:56:29;12.73;;;3.67;;
60239;SDS011;46102;39.012;-7.064;2023-03-18T03:58:31;8.35;;;4.05;;
60239;SDS011;46102;39.012;-7.064;2023-03-18T04:00:32;12.75;;;4.75;;
60239;SDS011;46102;39.012;-7.064;2023-03-18T04:02:32;11.52;;;4.65;;
60239;SDS011;46102;39.012;-7.064;2023-03-18T04:04:34;15.85;;;5.60;;
60239;SDS011;46102;39.012;-7.064;2023-03-18T04:06:35;15.63;;;5.82;;
60239;SDS011;46102;39.012;-7.064;2023-03-18T04:08:36;17.15;;;6.22;;
60239;SDS011;46102;39.012;-7.064;2023-03-18T04:10:37;18.15;;;5.63;;
60239;SDS011;46102;39.012;-7.064;2023-03-18T04:12:41;19.00;;;6.13;;
60239;SDS011;46102;39.012;-7.064;2023-03-18T04:14:42;14.25;;;6.57;;
60239;SDS011;46102;39.012;-7.064;2023-03-18T04:16:43;16.98;;;4.75;;
60239;SDS011;46102;39.012;-7.064;2023-03-18T04:18:44;15.85;;;5.10;;
60239;SDS011;46102;39.012;-7.064;2023-03-18T04:20:45;15.07;;;4.65;;
60239;SDS011;46102;39.012;-7.064;2023-03-18T04:22:55;10.10;;;4.10;;
60239;SDS011;46102;39.012;-7.064;2023-03-18T04:24:57;17.23;;;4.78;;
60239;SDS011;46102;39.012;-7.064;2023-03-18T04:26:58;16.25;;;4.28;;
60239;SDS011;46102;39.012;-7.064;2023-03-18T04:28:59;14.68;;;4.88;;
60239;SDS011;46102;39.012;-7.064;2023-03-18T04:31:00;12.30;;;4.22;;
60239;SDS011;46102;39.012;-7.064;2023-03-18T04:33:01;15.10;;;5.22;;
60239;SDS011;46102;39.012;-7.064;2023-03-18T04:35:04;14.15;;;5.57;;
60239;SDS011;46102;39.012;-7.064;2023-03-18T04:37:05;15.70;;;4.47;;
60239;SDS011;46102;39.012;-7.064;2023-03-18T04:39:09;23.25;;;5.13;;
60239;SDS011;46102;39.012;-7.064;2023-03-18T04:41:10;12.00;;;4.43;;
60239;SDS011;46102;39.012;-7.064;2023-03-18T04:43:11;13.88;;;4.70;;
60239;SDS011;46102;39.012;-7.064;2023-03-18T04:45:13;14.07;;;4.32;;
60239;SDS011;46102;39.012;-7.064;2023-03-18T04:47:15;11.98;;;4.90;;
60239;SDS011;46102;39.012;-7.064;2023-03-18T04:49:16;10.43;;;5.07;;
60239;SDS011;46102;39.012;-7.064;2023-03-18T04:51:18;12.13;;;3.97;;
60239;SDS011;46102;39.012;-7.064;2023-03-18T04:53:20;17.17;;;4.82;;
60239;SDS011;46102;39.012;-7.064;2023-03-18T04:55:21;10.38;;;3.90;;
60239;SDS011;46102;39.012;-7.064;2023-03-18T04:57:22;10.40;;;3.00;;
60239;SDS011;46102;39.012;-7.064;2023-03-18T04:59:28;12.05;;;3.53;;
60239;SDS011;46102;39.012;-7.064;2023-03-18T05:01:29;5.50;;;2.40;;
60239;SDS011;46102;39.012;-7.064;2023-03-18T05:03:31;11.65;;;2.70;;
60239;SDS011;46102;39.012;-7.064;2023-03-18T05:05:32;14.13;;;3.97;;
60239;SDS011;46102;39.012;-7.064;2023-03-18T05:07:34;13.25;;;3.60;;
60239;SDS011;46102;39.012;-7.064;2023-03-18T05:09:42;7.30;;;3.38;;
60239;SDS011;46102;39.012;-7.064;2023-03-18T05:11:46;12.13;;;4.13;;
60239;SDS011;46102;39.012;-7.064;2023-03-18T05:13:55;17.15;;;4.50;;
60239;SDS011;46102;39.012;-7.064;2023-03-18T05:15:56;10.02;;;3.63;;
60239;SDS011;46102;39.012;-7.064;2023-03-18T05:17:58;10.13;;;3.70;;
60239;SDS011;46102;39.012;-7.064;2023-03-18T05:20:00;18.33;;;4.07;;
60239;SDS011;46102;39.012;-7.064;2023-03-18T05:22:02;12.18;;;3.90;;
60239;SDS011;46102;39.012;-7.064;2023-03-18T05:24:03;12.75;;;4.00;;
60239;SDS011;46102;39.012;-7.064;2023-03-18T05:26:10;14.55;;;4.90;;
60239;SDS011;46102;39.012;-7.064;2023-03-18T05:28:18;10.20;;;4.05;;
60239;SDS011;46102;39.012;-7.064;2023-03-18T05:30:29;14.55;;;4.05;;
60239;SDS011;46102;39.012;-7.064;2023-03-18T05:32:30;14.13;;;4.03;;
60239;SDS011;46102;39.012;-7.064;2023-03-18T05:34:36;14.75;;;4.47;;
60239;SDS011;46102;39.012;-7.064;2023-03-18T05:36:38;14.27;;;4.45;;
60239;SDS011;46102;39.012;-7.064;2023-03-18T05:38:41;8.63;;;3.65;;
60239;SDS011;46102;39.012;-7.064;2023-03-18T05:40:42;16.58;;;4.35;;
60239;SDS011;46102;39.012;-7.064;2023-03-18T05:42:55;6.70;;;3.42;;
60239;SDS011;46102;39.012;-7.064;2023-03-18T05:44:57;9.60;;;3.33;;
60239;SDS011;46102;39.012;-7.064;2023-03-18T05:46:59;9.48;;;2.65;;
60239;SDS011;46102;39.012;-7.064;2023-03-18T05:49:13;9.20;;;2.83;;
60239;SDS011;46102;39.012;-7.064;2023-03-18T05:51:26;12.40;;;3.03;;
60239;SDS011;46102;39.012;-7.064;2023-03-18T05:53:27;9.85;;;3.10;;
60239;SDS011;46102;39.012;-7.064;2023-03-18T05:55:54;9.45;;;2.78;;
60239;SDS011;46102;39.012;-7.064;2023-03-18T05:57:56;7.80;;;2.95;;
60239;SDS011;46102;39.012;-7.064;2023-03-18T05:59:59;8.80;;;3.10;;
60239;SDS011;46102;39.012;-7.064;2023-03-18T06:02:02;6.57;;;2.75;;
60239;SDS011;46102;39.012;-7.064;2023-03-18T06:04:03;11.32;;;3.55;;
60239;SDS011;46102;39.012;-7.064;2023-03-18T06:06:05;10.45;;;3.40;;
60239;SDS011;46102;39.012;-7.064;2023-03-18T06:08:08;5.32;;;3.20;;
60239;SDS011;46102;39.012;-7.064;2023-03-18T06:10:12;14.00;;;4.25;;
60239;SDS011;46102;39.012;-7.064;2023-03-18T06:12:13;10.70;;;3.25;;
60239;SDS011;46102;39.012;-7.064;2023-03-18T06:14:14;7.40;;;3.53;;
60239;SDS011;46102;39.012;-7.064;2023-03-18T06:16:15;9.20;;;3.70;;
60239;SDS011;46102;39.012;-7.064;2023-03-18T06:18:17;10.77;;;3.35;;
60239;SDS011;46102;39.012;-7.064;2023-03-18T06:20:18;9.32;;;3.50;;
60239;SDS011;46102;39.012;-7.064;2023-03-18T06:22:20;11.38;;;2.97;;
60239;SDS011;46102;39.012;-7.064;2023-03-18T06:24:21;16.88;;;4.22;;
60239;SDS011;46102;39.012;-7.064;2023-03-18T06:26:22;13.60;;;3.03;;
60239;SDS011;46102;39.012;-7.064;2023-03-18T06:28:23;7.30;;;2.75;;
60239;SDS011;46102;39.012;-7.064;2023-03-18T06:30:24;11.32;;;2.67;;
60239;SDS011;46102;39.012;-7.064;2023-03-18T06:32:25;5.82;;;2.30;;
60239;SDS011;46102;39.012;-7.064;2023-03-18T06:34:27;6.50;;;3.03;;
60239;SDS011;46102;39.012;-7.064;2023-03-18T06:36:29;7.10;;;2.10;;
60239;SDS011;46102;39.012;-7.064;2023-03-18T06:38:31;10.15;;;2.65;;
60239;SDS011;46102;39.012;-7.064;2023-03-18T06:40:33;5.55;;;2.53;;
60239;SDS011;46102;39.012;-7.064;2023-03-18T06:42:34;7.85;;;2.08;;
60239;SDS011;46102;39.012;-7.064;2023-03-18T06:44:58;4.50;;;2.08;;
60239;SDS011;46102;39.012;-7.064;2023-03-18T06:47:11;8.88;;;2.63;;
60239;SDS011;46102;39.012;-7.064;2023-03-18T06:49:18;10.30;;;2.80;;
60239;SDS011;46102;39.012;-7.064;2023-03-18T06:51:25;9.00;;;2.17;;
60239;SDS011;46102;39.012;-7.064;2023-03-18T06:53:27;10.93;;;2.80;;
60239;SDS011;46102;39.012;-7.064;2023-03-18T06:55:28;13.48;;;3.13;;
60239;SDS011;46102;39.012;-7.064;2023-03-18T06:57:30;7.68;;;2.53;;
60239;SDS011;46102;39.012;-7.064;2023-03-18T06:59:32;13.70;;;4.63;;
60239;SDS011;46102;39.012;-7.064;2023-03-18T07:01:35;14.90;;;2.70;;
60239;SDS011;46102;39.012;-7.064;2023-03-18T07:03:36;4.53;;;2.33;;
60239;SDS011;46102;39.012;-7.064;2023-03-18T07:05:38;7.72;;;2.67;;
60239;SDS011;46102;39.012;-7.064;2023-03-18T07:07:41;14.60;;;2.55;;
60239;SDS011;46102;39.012;-7.064;2023-03-18T07:09:43;7.95;;;2.35;;
60239;SDS011;46102;39.012;-7.064;2023-03-18T07:11:44;13.18;;;2.97;;
60239;SDS011;46102;39.012;-7.064;2023-03-18T07:13:50;12.77;;;2.58;;
60239;SDS011;46102;39.012;-7.064;2023-03-18T07:15:59;17.40;;;3.38;;
60239;SDS011;46102;39.012;-7.064;2023-03-18T07:18:00;12.18;;;2.92;;
60239;SDS011;46102;39.012;-7.064;2023-03-18T07:20:02;13.27;;;3.65;;
60239;SDS011;46102;39.012;-7.064;2023-03-18T07:22:05;7.22;;;2.90;;
60239;SDS011;46102;39.012;-7.064;2023-03-18T07:24:06;8.93;;;3.08;;
60239;SDS011;46102;39.012;-7.064;2023-03-18T07:26:08;5.38;;;3.13;;
60239;SDS011;46102;39.012;-7.064;2023-03-18T07:28:09;13.57;;;2.95;;
60239;SDS011;46102;39.012;-7.064;2023-03-18T07:30:10;6.20;;;2.60;;
60239;SDS011;46102;39.012;-7.064;2023-03-18T07:32:12;5.65;;;2.53;;
60239;SDS011;46102;39.012;-7.064;2023-03-18T07:34:13;9.95;;;3.15;;
60239;SDS011;46102;39.012;-7.064;2023-03-18T07:36:14;7.50;;;2.90;;
60239;SDS011;46102;39.012;-7.064;2023-03-18T07:38:15;6.97;;;2.35;;
60239;SDS011;46102;39.012;-7.064;2023-03-18T07:40:17;8.20;;;2.90;;
60239;SDS011;46102;39.012;-7.064;2023-03-18T07:42:18;9.23;;;2.78;;
60239;SDS011;46102;39.012;-7.064;2023-03-18T07:44:19;8.02;;;3.33;;
60239;SDS011;46102;39.012;-7.064;2023-03-18T07:46:20;7.45;;;3.35;;
60239;SDS011;46102;39.012;-7.064;2023-03-18T07:48:22;3.67;;;2.78;;
60239;SDS011;46102;39.012;-7.064;2023-03-18T07:50:23;9.68;;;3.45;;
60239;SDS011;46102;39.012;-7.064;2023-03-18T07:52:23;17.88;;;3.22;;
60239;SDS011;46102;39.012;-7.064;2023-03-18T07:54:25;12.43;;;3.60;;
60239;SDS011;46102;39.012;-7.064;2023-03-18T07:56:26;8.57;;;3.90;;
60239;SDS011;46102;39.012;-7.064;2023-03-18T07:58:27;12.23;;;4.22;;
60239;SDS011;46102;39.012;-7.064;2023-03-18T08:00:28;14.75;;;5.18;;
60239;SDS011;46102;39.012;-7.064;2023-03-18T08:02:28;10.65;;;3.90;;
60239;SDS011;46102;39.012;-7.064;2023-03-18T08:04:30;15.23;;;3.83;;
60239;SDS011;46102;39.012;-7.064;2023-03-18T08:06:31;11.55;;;3.58;;
60239;SDS011;46102;39.012;-7.064;2023-03-18T08:08:32;11.80;;;2.97;;
60239;SDS011;46102;39.012;-7.064;2023-03-18T08:10:33;8.98;;;2.80;;
60239;SDS011;46102;39.012;-7.064;2023-03-18T08:12:34;6.32;;;2.40;;
60239;SDS011;46102;39.012;-7.064;2023-03-18T08:14:35;11.55;;;3.05;;
60239;SDS011;46102;39.012;-7.064;2023-03-18T08:16:36;6.95;;;2.33;;
60239;SDS011;46102;39.012;-7.064;2023-03-18T08:18:37;9.55;;;2.70;;
60239;SDS011;46102;39.012;-7.064;2023-03-18T08:20:38;8.73;;;2.88;;
60239;SDS011;46102;39.012;-7.064;2023-03-18T08:22:39;5.43;;;2.97;;
60239;SDS011;46102;39.012;-7.064;2023-03-18T08:24:40;11.40;;;3.70;;
60239;SDS011;46102;39.012;-7.064;2023-03-18T08:26:41;11.15;;;4.28;;
60239;SDS011;46102;39.012;-7.064;2023-03-18T08:28:42;12.50;;;4.75;;
60239;SDS011;46102;39.012;-7.064;2023-03-18T08:30:43;11.80;;;5.28;;
60239;SDS011;46102;39.012;-7.064;2023-03-18T08:32:44;14.15;;;3.78;;
60239;SDS011;46102;39.012;-7.064;2023-03-18T08:34:45;12.10;;;4.13;;
60239;SDS011;46102;39.012;-7.064;2023-03-18T08:36:46;12.50;;;4.38;;
60239;SDS011;46102;39.012;-7.064;2023-03-18T08:38:47;6.15;;;3.55;;
60239;SDS011;46102;39.012;-7.064;2023-03-18T08:40:48;11.00;;;4.43;;
60239;SDS011;46102;39.012;-7.064;2023-03-18T08:42:50;7.22;;;3.42;;
60239;SDS011;46102;39.012;-7.064;2023-03-18T08:44:51;10.25;;;3.72;;
60239;SDS011;46102;39.012;-7.064;2023-03-18T08:46:52;11.63;;;3.92;;
60239;SDS011;46102;39.012;-7.064;2023-03-18T08:48:52;9.25;;;3.63;;
60239;SDS011;46102;39.012;-7.064;2023-03-18T08:50:53;10.25;;;4.45;;
60239;SDS011;46102;39.012;-7.064;2023-03-18T08:52:54;14.73;;;4.68;;
60239;SDS011;46102;39.012;-7.064;2023-03-18T08:54:57;9.63;;;4.15;;
60239;SDS011;46102;39.012;-7.064;2023-03-18T08:56:57;9.30;;;3.92;;
60239;SDS011;46102;39.012;-7.064;2023-03-18T08:58:59;5.50;;;3.83;;
60239;SDS011;46102;39.012;-7.064;2023-03-18T09:01:00;9.40;;;4.60;;
60239;SDS011;46102;39.012;-7.064;2023-03-18T09:03:04;13.63;;;5.20;;
60239;SDS011;46102;39.012;-7.064;2023-03-18T09:05:05;11.38;;;2.83;;
60239;SDS011;46102;39.012;-7.064;2023-03-18T09:07:07;12.60;;;2.22;;
60239;SDS011;46102;39.012;-7.064;2023-03-18T09:09:07;2.45;;;2.00;;
60239;SDS011;46102;39.012;-7.064;2023-03-18T09:11:08;8.93;;;2.35;;
60239;SDS011;46102;39.012;-7.064;2023-03-18T09:13:10;4.38;;;1.77;;
60239;SDS011;46102;39.012;-7.064;2023-03-18T09:15:12;8.45;;;1.88;;
60239;SDS011;46102;39.012;-7.064;2023-03-18T09:17:14;7.82;;;2.13;;
60239;SDS011;46102;39.012;-7.064;2023-03-18T09:19:15;4.45;;;1.70;;
60239;SDS011;46102;39.012;-7.064;2023-03-18T09:21:16;4.55;;;2.08;;
60239;SDS011;46102;39.012;-7.064;2023-03-18T09:23:18;8.48;;;1.98;;
60239;SDS011;46102;39.012;-7.064;2023-03-18T09:25:19;7.07;;;2.38;;
60239;SDS011;46102;39.012;-7.064;2023-03-18T09:27:20;6.60;;;2.60;;
60239;SDS011;46102;39.012;-7.064;2023-03-18T09:29:20;9.13;;;3.17;;
60239;SDS011;46102;39.012;-7.064;2023-03-18T09:31:21;10.43;;;2.08;;
60239;SDS011;46102;39.012;-7.064;2023-03-18T09:33:22;5.32;;;2.13;;
60239;SDS011;46102;39.012;-7.064;2023-03-18T09:35:24;6.15;;;1.70;;
60239;SDS011;46102;39.012;-7.064;2023-03-18T09:37:25;8.30;;;1.88;;
60239;SDS011;46102;39.012;-7.064;2023-03-18T09:39:26;4.05;;;1.77;;
60239;SDS011;46102;39.012;-7.064;2023-03-18T09:41:28;6.22;;;1.58;;
60239;SDS011;46102;39.012;-7.064;2023-03-18T09:55:36;4.60;;;1.70;;
60239;SDS011;46102;39.012;-7.064;2023-03-18T09:57:44;5.88;;;1.40;;
60239;SDS011;46102;39.012;-7.064;2023-03-18T09:59:52;7.72;;;1.70;;
60239;SDS011;46102;39.012;-7.064;2023-03-18T10:01:57;5.13;;;1.80;;
60239;SDS011;46102;39.012;-7.064;2023-03-18T10:04:09;7.30;;;2.13;;
60239;SDS011;46102;39.012;-7.064;2023-03-18T10:06:18;2.85;;;1.40;;
60239;SDS011;46102;39.012;-7.064;2023-03-18T10:10:37;3.65;;;1.90;;
60239;SDS011;46102;39.012;-7.064;2023-03-18T10:12:42;6.30;;;1.50;;
60239;SDS011;46102;39.012;-7.064;2023-03-18T10:15:00;7.18;;;1.50;;
60239;SDS011;46102;39.012;-7.064;2023-03-18T10:17:27;4.22;;;1.25;;
60239;SDS011;46102;39.012;-7.064;2023-03-18T10:19:32;3.17;;;1.00;;
60239;SDS011;46102;39.012;-7.064;2023-03-18T10:21:54;4.03;;;1.30;;
60239;SDS011;46102;39.012;-7.064;2023-03-18T10:26:34;5.97;;;2.92;;
60239;SDS011;46102;39.012;-7.064;2023-03-18T10:36:02;4.40;;;1.10;;
60239;SDS011;46102;39.012;-7.064;2023-03-18T10:38:16;1.88;;;1.10;;
60239;SDS011;46102;39.012;-7.064;2023-03-18T10:40:23;3.58;;;1.67;;
60239;SDS011;46102;39.012;-7.064;2023-03-18T10:42:25;3.83;;;1.30;;
60239;SDS011;46102;39.012;-7.064;2023-03-18T10:46:32;4.90;;;1.02;;
60239;SDS011;46102;39.012;-7.064;2023-03-18T10:55:11;9.07;;;1.58;;
60239;SDS011;46102;39.012;-7.064;2023-03-18T10:57:18;4.57;;;1.30;;
60239;SDS011;46102;39.012;-7.064;2023-03-18T10:59:21;5.50;;;1.55;;
60239;SDS011;46102;39.012;-7.064;2023-03-18T11:01:25;9.77;;;1.30;;
60239;SDS011;46102;39.012;-7.064;2023-03-18T11:05:40;7.80;;;2.75;;
60239;SDS011;46102;39.012;-7.064;2023-03-18T11:07:55;3.80;;;1.15;;
60239;SDS011;46102;39.012;-7.064;2023-03-18T11:10:17;3.20;;;1.15;;
60239;SDS011;46102;39.012;-7.064;2023-03-18T11:12:25;9.30;;;3.75;;
60239;SDS011;46102;39.012;-7.064;2023-03-18T11:16:41;5.80;;;2.08;;
60239;SDS011;46102;39.012;-7.064;2023-03-18T11:18:49;7.97;;;3.53;;
60239;SDS011;46102;39.012;-7.064;2023-03-18T11:20:58;3.03;;;2.15;;
60239;SDS011;46102;39.012;-7.064;2023-03-18T11:23:04;10.18;;;3.72;;
60239;SDS011;46102;39.012;-7.064;2023-03-18T11:25:16;9.32;;;4.25;;
60239;SDS011;46102;39.012;-7.064;2023-03-18T11:27:27;9.25;;;3.95;;
60239;SDS011;46102;39.012;-7.064;2023-03-18T11:29:33;6.63;;;2.10;;
60239;SDS011;46102;39.012;-7.064;2023-03-18T11:31:45;7.53;;;1.52;;
60239;SDS011;46102;39.012;-7.064;2023-03-18T11:33:49;4.68;;;1.67;;
60239;SDS011;46102;39.012;-7.064;2023-03-18T11:35:51;1.63;;;1.10;;
60239;SDS011;46102;39.012;-7.064;2023-03-18T11:38:01;3.30;;;0.90;;
60239;SDS011;46102;39.012;-7.064;2023-03-18T11:42:17;6.22;;;1.80;;
60239;SDS011;46102;39.012;-7.064;2023-03-18T11:44:29;5.18;;;1.58;;
60239;SDS011;46102;39.012;-7.064;2023-03-18T11:48:53;4.47;;;1.23;;
60239;SDS011;46102;39.012;-7.064;2023-03-18T11:53:22;2.17;;;0.88;;
60239;SDS011;46102;39.012;-7.064;2023-03-18T11:55:43;10.48;;;2.28;;
60239;SDS011;46102;39.012;-7.064;2023-03-18T12:00:17;3.47;;;0.90;;
60239;SDS011;46102;39.012;-7.064;2023-03-18T12:02:34;7.85;;;1.58;;
60239;SDS011;46102;39.012;-7.064;2023-03-18T12:04:42;3.33;;;1.25;;
60239;SDS011;46102;39.012;-7.064;2023-03-18T12:27:18;3.50;;;1.45;;
60239;SDS011;46102;39.012;-7.064;2023-03-18T12:34:00;3.17;;;1.35;;
60239;SDS011;46102;39.012;-7.064;2023-03-18T12:40:38;2.55;;;0.85;;
60239;SDS011;46102;39.012;-7.064;2023-03-18T12:43:06;5.00;;;1.38;;
60239;SDS011;46102;39.012;-7.064;2023-03-18T12:45:24;1.48;;;1.38;;
60239;SDS011;46102;39.012;-7.064;2023-03-18T12:47:38;3.55;;;1.00;;
60239;SDS011;46102;39.012;-7.064;2023-03-18T12:51:49;3.15;;;1.05;;
60239;SDS011;46102;39.012;-7.064;2023-03-18T12:54:05;4.70;;;0.98;;
60239;SDS011;46102;39.012;-7.064;2023-03-18T12:56:14;6.13;;;1.63;;
60239;SDS011;46102;39.012;-7.064;2023-03-18T12:58:26;2.08;;;1.00;;
60239;SDS011;46102;39.012;-7.064;2023-03-18T13:00:35;2.20;;;0.90;;
60239;SDS011;46102;39.012;-7.064;2023-03-18T13:02:46;3.53;;;1.20;;
60239;SDS011;46102;39.012;-7.064;2023-03-18T13:04:55;1.52;;;0.68;;
60239;SDS011;46102;39.012;-7.064;2023-03-18T13:07:08;6.32;;;1.38;;
60239;SDS011;46102;39.012;-7.064;2023-03-18T13:11:55;4.63;;;1.45;;
60239;SDS011;46102;39.012;-7.064;2023-03-18T13:14:13;4.47;;;1.40;;
60239;SDS011;46102;39.012;-7.064;2023-03-18T13:16:16;5.13;;;1.52;;
60239;SDS011;46102;39.012;-7.064;2023-03-18T13:20:29;8.57;;;1.92;;
60239;SDS011;46102;39.012;-7.064;2023-03-18T13:34:55;5.13;;;1.55;;
60239;SDS011;46102;39.012;-7.064;2023-03-18T13:44:19;5.47;;;1.55;;
60239;SDS011;46102;39.012;-7.064;2023-03-18T13:46:28;1.10;;;1.00;;
60239;SDS011;46102;39.012;-7.064;2023-03-18T13:48:32;8.48;;;1.65;;
60239;SDS011;46102;39.012;-7.064;2023-03-18T13:50:35;3.53;;;1.20;;
60239;SDS011;46102;39.012;-7.064;2023-03-18T13:54:39;2.13;;;1.80;;
60239;SDS011;46102;39.012;-7.064;2023-03-18T13:58:43;1.20;;;1.13;;
60239;SDS011;46102;39.012;-7.064;2023-03-18T14:05:00;1.20;;;0.90;;
60239;SDS011;46102;39.012;-7.064;2023-03-18T14:09:21;6.88;;;1.40;;
60239;SDS011;46102;39.012;-7.064;2023-03-18T14:13:26;2.47;;;0.95;;
60239;SDS011;46102;39.012;-7.064;2023-03-18T14:15:35;2.67;;;0.73;;
60239;SDS011;46102;39.012;-7.064;2023-03-18T14:17:40;2.92;;;1.23;;
60239;SDS011;46102;39.012;-7.064;2023-03-18T14:19:51;3.60;;;1.10;;